createdAt,value
2022-11-14T00:00:59.946Z,99724.69
2022-11-14T00:03:26.432Z,99721.53
2022-11-14T00:05:52.910Z,99711.00
2022-11-14T00:08:22.254Z,99709.66
2022-11-14T00:10:50.162Z,99705.84
2022-11-14T00:13:17.794Z,99710.53
2022-11-14T00:15:45.945Z,99709.22
2022-11-14T00:18:12.485Z,99706.88
2022-11-14T00:20:39.052Z,99707.03
2022-11-14T00:23:05.575Z,99708.94
2022-11-14T00:25:32.805Z,99709.44
2022-11-14T00:27:59.726Z,99698.94
2022-11-14T00:30:28.377Z,99700.72
2022-11-14T00:32:55.047Z,99693.38
2022-11-14T00:35:21.589Z,99689.72
2022-11-14T00:37:48.095Z,99684.84
2022-11-14T00:40:17.249Z,99687.78
2022-11-14T00:42:44.772Z,99669.72
2022-11-14T00:45:11.841Z,99676.97
2022-11-14T00:47:38.415Z,99673.56
2022-11-14T00:50:05.967Z,99669.78
2022-11-14T00:52:32.469Z,99661.88
2022-11-14T00:54:59.111Z,99669.78
2022-11-14T00:57:25.760Z,99657.69
2022-11-14T00:59:55.642Z,99671.78
2022-11-14T01:02:22.683Z,99666.63
2022-11-14T01:04:49.220Z,99667.38
2022-11-14T01:07:15.764Z,99667.13
2022-11-14T01:09:42.286Z,99664.69
2022-11-14T01:12:08.808Z,99661.50
2022-11-14T01:14:35.356Z,99675.31
2022-11-14T01:17:01.924Z,99666.94
2022-11-14T01:19:28.466Z,99662.34
2022-11-14T01:21:55.008Z,99658.88
2022-11-14T01:24:21.564Z,99654.91
2022-11-14T01:26:48.047Z,99653.47
2022-11-14T01:29:14.686Z,99644.78
2022-11-14T01:31:41.252Z,99647.47
2022-11-14T01:34:08.229Z,99651.41
2022-11-14T01:36:34.744Z,99649.53
2022-11-14T01:39:01.223Z,99649.03
2022-11-14T01:41:27.903Z,99646.81
2022-11-14T01:43:54.611Z,99641.47
2022-11-14T01:46:26.402Z,99633.97
2022-11-14T01:48:58.419Z,99637.66
2022-11-14T01:51:25.143Z,99642.78
2022-11-14T01:53:54.857Z,99633.88
2022-11-14T01:56:38.239Z,99632.28
2022-11-14T01:59:11.325Z,99623.13
2022-11-14T02:04:18.452Z,99622.53
2022-11-14T02:06:46.669Z,99618.28
2022-11-14T02:09:13.468Z,99617.09
2022-11-14T02:11:43.577Z,99615.69
2022-11-14T02:14:10.901Z,99607.56
2022-11-14T02:16:40.143Z,99603.38
2022-11-14T02:19:06.856Z,99604.75
2022-11-14T02:21:33.763Z,99591.34
2022-11-14T02:24:00.261Z,99596.19
2022-11-14T02:26:26.774Z,99592.50
2022-11-14T02:28:53.664Z,99598.81
2022-11-14T02:31:20.213Z,99594.69
2022-11-14T02:33:46.675Z,99591.53
2022-11-14T02:36:13.158Z,99588.28
2022-11-14T02:38:39.674Z,99580.75
2022-11-14T02:41:06.293Z,99584.88
2022-11-14T02:43:32.841Z,99584.72
2022-11-14T02:46:05.242Z,99584.97
2022-11-14T02:48:32.528Z,99579.75
2022-11-14T02:50:59.295Z,99586.09
2022-11-14T02:53:26.027Z,99586.09
2022-11-14T02:55:52.530Z,99581.22
2022-11-14T02:58:19.063Z,99584.28
2022-11-14T03:01:13.694Z,99581.22
2022-11-14T03:03:32.111Z,99577.66
2022-11-14T03:06:00.764Z,99579.91
2022-11-14T03:08:27.983Z,99582.81
2022-11-14T03:10:55.162Z,99573.63
2022-11-14T03:13:22.168Z,99578.47
2022-11-14T03:15:48.647Z,99575.34
2022-11-14T03:18:15.125Z,99577.38
2022-11-14T03:20:41.654Z,99573.34
2022-11-14T03:23:08.141Z,99568.44
2022-11-14T03:25:34.930Z,99576.31
2022-11-14T03:28:01.402Z,99573.81
2022-11-14T03:30:27.903Z,99571.59
2022-11-14T03:32:56.289Z,99575.34
2022-11-14T03:35:23.514Z,99573.97
2022-11-14T03:37:52.757Z,99584.88
2022-11-14T03:40:22.582Z,99582.56
2022-11-14T03:42:49.054Z,99576.44
2022-11-14T03:45:15.535Z,99578.81
2022-11-14T03:47:42.001Z,99574.97
2022-11-14T03:50:08.779Z,99571.38
2022-11-14T03:52:35.289Z,99568.50
2022-11-14T03:55:01.769Z,99571.16
2022-11-14T03:57:28.288Z,99567.38
2022-11-14T03:59:54.840Z,99563.28
2022-11-14T04:02:21.475Z,99565.56
2022-11-14T04:04:48.006Z,99568.88
2022-11-14T04:07:14.626Z,99565.50
2022-11-14T04:09:41.192Z,99563.75
2022-11-14T04:12:11.305Z,99567.13
2022-11-14T04:14:42.166Z,99577.66
2022-11-14T04:17:08.987Z,99565.75
2022-11-14T04:19:35.977Z,99571.31
2022-11-14T04:22:02.773Z,99565.91
2022-11-14T04:24:29.288Z,99563.72
2022-11-14T04:26:56.014Z,99568.28
2022-11-14T04:29:22.588Z,99561.25
2022-11-14T04:31:49.090Z,99561.88
2022-11-14T04:34:15.591Z,99567.13
2022-11-14T04:36:42.095Z,99560.66
2022-11-14T04:39:08.771Z,99567.94
2022-11-14T04:41:35.303Z,99569.59
2022-11-14T04:44:01.905Z,99571.34
2022-11-14T04:46:28.440Z,99569.69
2022-11-14T04:48:54.977Z,99568.13
2022-11-14T04:51:21.616Z,99567.81
2022-11-14T04:53:48.094Z,99562.66
2022-11-14T04:56:14.632Z,99564.19
2022-11-14T04:58:41.121Z,99562.19
2022-11-14T05:01:11.917Z,99560.66
2022-11-14T05:03:38.568Z,99553.59
2022-11-14T05:06:05.246Z,99558.75
2022-11-14T05:08:32.248Z,99557.88
2022-11-14T05:10:58.909Z,99565.34
2022-11-14T05:13:25.394Z,99565.00
2022-11-14T05:15:51.973Z,99566.50
2022-11-14T05:18:18.601Z,99572.22
2022-11-14T05:20:45.216Z,99572.50
2022-11-14T05:23:22.645Z,99570.91
2022-11-14T05:26:02.231Z,99572.50
2022-11-14T05:28:29.407Z,99569.28
2022-11-14T05:31:10.958Z,99583.97
2022-11-14T05:33:37.783Z,99573.72
2022-11-14T05:36:06.284Z,99579.91
2022-11-14T05:38:33.254Z,99577.88
2022-11-14T05:41:00.345Z,99577.97
2022-11-14T05:43:29.721Z,99581.06
2022-11-14T05:46:00.910Z,99578.03
2022-11-14T05:48:28.450Z,99585.09
2022-11-14T05:50:56.103Z,99580.84
2022-11-14T05:53:22.876Z,99578.28
2022-11-14T05:55:49.543Z,99582.81
2022-11-14T05:58:16.190Z,99581.69
2022-11-14T06:00:50.759Z,99586.09
2022-11-14T06:03:20.082Z,99581.88
2022-11-14T06:05:46.860Z,99590.25
2022-11-14T06:08:13.794Z,99585.09
2022-11-14T06:10:40.341Z,99581.25
2022-11-14T06:13:06.853Z,99580.84
2022-11-14T06:15:33.323Z,99590.09
2022-11-14T06:17:59.990Z,99589.09
2022-11-14T06:20:26.511Z,99585.56
2022-11-14T06:22:55.964Z,99586.28
2022-11-14T06:25:22.659Z,99588.63
2022-11-14T06:27:49.145Z,99590.09
2022-11-14T06:30:16.013Z,99600.16
2022-11-14T06:32:42.509Z,99593.34
2022-11-14T06:35:09.289Z,99593.34
2022-11-14T06:37:37.399Z,99597.13
2022-11-14T06:40:04.263Z,99602.41
2022-11-14T06:42:30.917Z,99598.72
2022-11-14T06:44:57.403Z,99602.84
2022-11-14T06:47:23.883Z,99599.94
2022-11-14T06:49:50.351Z,99601.53
2022-11-14T06:52:16.882Z,99593.31
2022-11-14T06:54:43.442Z,99591.88
2022-11-14T06:57:09.912Z,99589.31
2022-11-14T06:59:36.419Z,99604.00
2022-11-14T07:02:03.240Z,99600.09
2022-11-14T07:04:29.725Z,99601.41
2022-11-14T07:06:56.300Z,99604.88
2022-11-14T07:09:22.805Z,99601.63
2022-11-14T07:11:49.282Z,99602.56
2022-11-14T07:14:15.870Z,99605.22
2022-11-14T07:16:42.411Z,99605.81
2022-11-14T07:19:12.356Z,99614.03
2022-11-14T07:21:39.100Z,99629.88
2022-11-14T07:24:05.919Z,99619.25
2022-11-14T07:26:32.751Z,99624.09
2022-11-14T07:29:02.367Z,99623.69
2022-11-14T07:31:29.540Z,99629.38
2022-11-14T07:33:56.060Z,99623.28
2022-11-14T07:36:23.276Z,99636.09
2022-11-14T07:38:49.868Z,99636.31
2022-11-14T07:41:17.122Z,99635.22
2022-11-14T07:43:43.695Z,99641.28
2022-11-14T07:46:17.597Z,99647.34
2022-11-14T07:48:44.730Z,99646.53
2022-11-14T07:51:17.127Z,99646.06
2022-11-14T07:53:43.832Z,99650.22
2022-11-14T07:56:10.840Z,99649.03
2022-11-14T07:58:38.941Z,99652.22
2022-11-14T08:01:07.249Z,99650.59
2022-11-14T08:03:34.417Z,99654.81
2022-11-14T08:06:08.929Z,99657.56
2022-11-14T08:08:35.893Z,99664.47
2022-11-14T08:11:03.393Z,99660.63
2022-11-14T08:13:32.716Z,99666.06
2022-11-14T08:16:09.148Z,99668.47
2022-11-14T08:18:38.841Z,99672.84
2022-11-14T08:21:05.805Z,99670.03
2022-11-14T08:23:32.555Z,99675.00
2022-11-14T08:26:00.167Z,99666.06
2022-11-14T08:28:27.000Z,99665.81
2022-11-14T08:30:59.161Z,99663.44
2022-11-14T08:33:25.678Z,99672.72
2022-11-14T08:35:52.212Z,99663.91
2022-11-14T08:38:19.058Z,99666.38
2022-11-14T08:40:45.571Z,99666.31
2022-11-14T08:43:12.242Z,99680.31
2022-11-14T08:45:38.772Z,99679.38
2022-11-14T08:48:05.892Z,99676.22
2022-11-14T08:50:32.628Z,99678.34
2022-11-14T08:52:59.117Z,99685.75
2022-11-14T08:55:25.742Z,99678.13
2022-11-14T08:57:53.899Z,99667.84
2022-11-14T09:00:21.025Z,99677.78
2022-11-14T09:02:48.362Z,99676.28
2022-11-14T09:05:14.996Z,99673.00
2022-11-14T09:07:41.695Z,99679.78
2022-11-14T09:10:09.344Z,99679.03
2022-11-14T09:12:35.881Z,99674.72
2022-11-14T09:15:02.579Z,99681.78
2022-11-14T09:17:29.098Z,99678.00
2022-11-14T09:19:55.963Z,99685.69
2022-11-14T09:22:22.472Z,99675.84
2022-11-14T09:24:49.575Z,99677.81
2022-11-14T09:27:16.303Z,99675.50
2022-11-14T09:29:43.011Z,99677.19
2022-11-14T09:32:09.613Z,99684.72
2022-11-14T09:34:37.273Z,99675.69
2022-11-14T09:37:03.856Z,99678.91
2022-11-14T09:39:30.644Z,99681.94
2022-11-14T09:42:06.407Z,99686.94
2022-11-14T09:44:47.832Z,99684.63
2022-11-14T09:47:21.077Z,99694.09
2022-11-14T09:49:51.193Z,99679.38
2022-11-14T09:52:35.192Z,99689.47
2022-11-14T09:55:10.792Z,99692.25
2022-11-14T09:57:37.486Z,99692.50
2022-11-14T10:00:23.087Z,99697.41
2022-11-14T10:03:22.097Z,99689.75
2022-11-14T10:06:24.715Z,99691.69
2022-11-14T10:09:03.090Z,99685.81
2022-11-14T10:11:36.455Z,99689.97
2022-11-14T10:14:23.477Z,99690.34
2022-11-14T10:17:23.868Z,99685.94
2022-11-14T10:20:09.092Z,99693.31
2022-11-14T10:23:04.198Z,99683.34
2022-11-14T10:25:42.498Z,99680.69
2022-11-14T10:28:38.339Z,99680.19
2022-11-14T10:31:27.641Z,99681.78
2022-11-14T10:34:38.436Z,99678.22
2022-11-14T10:37:37.645Z,99683.63
2022-11-14T10:40:22.108Z,99677.91
2022-11-14T10:42:56.912Z,99676.09
2022-11-14T10:45:31.467Z,99677.78
2022-11-14T10:48:03.345Z,99673.97
2022-11-14T10:50:50.142Z,99666.13
2022-11-14T10:53:38.555Z,99660.88
2022-11-14T10:56:05.710Z,99663.75
2022-11-14T10:58:42.234Z,99666.78
2022-11-14T11:01:32.898Z,99661.41
2022-11-14T11:04:20.694Z,99664.22
2022-11-14T11:06:50.131Z,99662.28
2022-11-14T11:09:46.011Z,99655.59
2022-11-14T11:12:19.482Z,99648.41
2022-11-14T11:14:47.809Z,99656.25
2022-11-14T11:17:19.699Z,99654.63
2022-11-14T11:19:48.370Z,99648.06
2022-11-14T11:22:30.058Z,99649.81
2022-11-14T11:24:57.200Z,99644.22
2022-11-14T11:27:29.070Z,99646.22
2022-11-14T11:30:18.781Z,99632.56
2022-11-14T11:32:45.351Z,99636.91
2022-11-14T11:35:17.120Z,99639.94
2022-11-14T11:37:46.308Z,99643.00
2022-11-14T11:40:20.160Z,99635.44
2022-11-14T11:45:47.165Z,99628.03
2022-11-14T11:48:18.556Z,99634.63
2022-11-14T11:50:45.375Z,99624.91
2022-11-14T11:53:31.451Z,99620.63
2022-11-14T11:56:13.508Z,99621.81
2022-11-14T11:58:49.677Z,99629.25
2022-11-14T12:01:16.862Z,99626.66
2022-11-14T12:03:51.757Z,99628.25
2022-11-14T12:06:27.390Z,99626.78
2022-11-14T12:09:29.457Z,99627.19
2022-11-14T12:12:18.329Z,99626.38
2022-11-14T12:15:03.530Z,99621.19
2022-11-14T12:17:32.651Z,99613.75
2022-11-14T12:20:02.284Z,99612.59
2022-11-14T12:22:34.555Z,99618.25
2022-11-14T12:25:38.240Z,99615.22
2022-11-14T12:28:34.912Z,99608.56
2022-11-14T12:31:04.842Z,99610.34
2022-11-14T12:33:37.298Z,99606.94
2022-11-14T12:36:08.486Z,99603.94
2022-11-14T12:38:42.964Z,99610.19
2022-11-14T12:41:10.647Z,99599.47
2022-11-14T12:43:40.147Z,99588.75
2022-11-14T12:46:13.129Z,99589.16
2022-11-14T12:48:44.650Z,99583.47
2022-11-14T12:51:46.978Z,99579.31
2022-11-14T12:54:46.205Z,99577.03
2022-11-14T12:57:42.122Z,99571.84
2022-11-14T13:00:09.361Z,99576.16
2022-11-14T13:02:57.759Z,99583.78
2022-11-14T13:05:46.841Z,99578.19
2022-11-14T13:09:12.570Z,99576.13
2022-11-14T13:12:02.009Z,99574.25
2022-11-14T13:14:48.453Z,99568.81
2022-11-14T13:17:36.453Z,99567.19
2022-11-14T13:20:49.740Z,99561.75
2022-11-14T13:23:25.262Z,99557.88
2022-11-14T13:26:09.946Z,99563.16
2022-11-14T13:28:46.534Z,99568.38
2022-11-14T13:31:16.312Z,99554.63
2022-11-14T13:33:43.994Z,99553.06
2022-11-14T13:36:34.984Z,99546.88
2022-11-14T13:39:47.784Z,99544.16
2022-11-14T13:42:41.740Z,99548.78
2022-11-14T13:45:34.098Z,99543.28
2022-11-14T13:48:12.360Z,99546.56
2022-11-14T13:50:40.629Z,99542.06
2022-11-14T13:53:24.007Z,99542.59
2022-11-14T13:56:07.433Z,99540.09
2022-11-14T13:59:06.751Z,99540.81
2022-11-14T14:01:42.933Z,99535.22
2022-11-14T14:04:37.065Z,99528.81
2022-11-14T14:07:22.285Z,99541.03
2022-11-14T14:10:14.752Z,99536.69
2022-11-14T14:12:46.903Z,99535.34
2022-11-14T14:15:26.857Z,99531.38
2022-11-14T14:18:11.638Z,99529.41
2022-11-14T14:20:46.075Z,99535.22
2022-11-14T14:23:30.867Z,99527.75
2022-11-14T14:26:16.275Z,99523.66
2022-11-14T14:28:57.554Z,99522.91
2022-11-14T14:31:24.714Z,99515.63
2022-11-14T14:33:52.685Z,99518.69
2022-11-14T14:36:30.176Z,99520.66
2022-11-14T14:39:18.457Z,99510.97
2022-11-14T14:41:45.886Z,99520.56
2022-11-14T14:44:18.701Z,99520.56
2022-11-14T14:46:45.375Z,99519.63
2022-11-14T14:49:18.267Z,99516.44
2022-11-14T14:51:44.940Z,99520.84
2022-11-14T14:54:23.655Z,99521.47
2022-11-14T14:56:55.992Z,99523.16
2022-11-14T14:59:24.931Z,99516.75
2022-11-14T15:01:51.875Z,99518.84
2022-11-14T15:04:20.326Z,99524.34
2022-11-14T15:06:47.723Z,99527.53
2022-11-14T15:09:20.683Z,99520.06
2022-11-14T15:11:55.636Z,99520.06
2022-11-14T15:14:31.280Z,99520.94
2022-11-14T15:17:00.257Z,99516.84
2022-11-14T15:19:38.997Z,99522.44
2022-11-14T15:22:23.442Z,99519.25
2022-11-14T15:25:11.944Z,99511.53
2022-11-14T15:27:51.464Z,99509.16
2022-11-14T15:30:35.546Z,99520.47
2022-11-14T15:33:22.993Z,99519.06
2022-11-14T15:36:09.017Z,99519.56
2022-11-14T15:38:43.922Z,99512.06
2022-11-14T15:41:17.577Z,99520.97
2022-11-14T15:43:44.339Z,99519.63
2022-11-14T15:46:40.116Z,99526.47
2022-11-14T15:49:10.529Z,99529.91
2022-11-14T15:51:50.472Z,99532.38
2022-11-14T15:54:34.086Z,99514.31
2022-11-14T15:57:12.899Z,99515.97
2022-11-14T15:59:39.966Z,99519.34
2022-11-14T16:02:26.725Z,99523.28
2022-11-14T16:04:53.914Z,99521.25
2022-11-14T16:07:20.784Z,99512.41
2022-11-14T16:09:47.852Z,99516.47
2022-11-14T16:12:14.788Z,99506.31
2022-11-14T16:14:41.519Z,99511.16
2022-11-14T16:17:17.032Z,99520.25
2022-11-14T16:19:43.980Z,99518.28
2022-11-14T16:22:13.864Z,99533.66
2022-11-14T16:24:40.415Z,99536.38
2022-11-14T16:27:07.192Z,99534.59
2022-11-14T16:29:33.824Z,99538.63
2022-11-14T16:32:00.510Z,99534.28
2022-11-14T16:34:27.602Z,99533.75
2022-11-14T16:36:59.282Z,99545.19
2022-11-14T16:39:25.904Z,99549.00
2022-11-14T16:41:52.911Z,99539.41
2022-11-14T16:44:19.528Z,99550.34
2022-11-14T16:46:46.435Z,99566.53
2022-11-14T16:49:14.954Z,99551.94
2022-11-14T16:51:49.627Z,99559.59
2022-11-14T16:54:18.496Z,99573.72
2022-11-14T16:56:45.461Z,99575.06
2022-11-14T16:59:12.127Z,99592.94
2022-11-14T17:01:40.144Z,99587.84
2022-11-14T17:04:06.672Z,99580.06
2022-11-14T17:06:33.871Z,99579.72
2022-11-14T17:09:00.891Z,99581.41
2022-11-14T17:11:27.761Z,99574.97
2022-11-14T17:13:55.810Z,99580.53
2022-11-14T17:16:22.425Z,99566.94
2022-11-14T17:18:55.743Z,99579.31
2022-11-14T17:21:23.174Z,99582.75
2022-11-14T17:24:01.550Z,99584.06
2022-11-14T17:26:29.038Z,99576.28
2022-11-14T17:28:55.934Z,99582.75
2022-11-14T17:31:22.956Z,99590.78
2022-11-14T17:33:54.059Z,99589.31
2022-11-14T17:36:20.999Z,99589.78
2022-11-14T17:38:47.647Z,99591.47
2022-11-14T17:41:14.187Z,99591.13
2022-11-14T17:43:41.124Z,99591.03
2022-11-14T17:46:15.324Z,99594.16
2022-11-14T17:48:44.030Z,99607.78
2022-11-14T17:51:13.648Z,99599.75
2022-11-14T17:53:40.941Z,99603.66
2022-11-14T17:56:09.523Z,99609.09
2022-11-14T17:58:36.068Z,99604.47
2022-11-14T18:01:08.697Z,99607.66
2022-11-14T18:03:35.700Z,99609.94
2022-11-14T18:06:06.573Z,99609.91
2022-11-14T18:08:33.976Z,99608.19
2022-11-14T18:11:01.972Z,99616.00
2022-11-14T18:13:29.010Z,99606.88
2022-11-14T18:16:00.276Z,99606.28
2022-11-14T18:18:26.764Z,99608.69
2022-11-14T18:20:53.442Z,99609.25
2022-11-14T18:23:19.933Z,99603.13
2022-11-14T18:25:46.400Z,99600.22
2022-11-14T18:28:12.914Z,99605.56
2022-11-14T18:30:42.063Z,99603.88
2022-11-14T18:33:09.615Z,99602.38
2022-11-14T18:35:36.128Z,99594.38
2022-11-14T18:38:02.652Z,99592.66
2022-11-14T18:40:29.191Z,99597.44
2022-11-14T18:42:56.259Z,99593.09
2022-11-14T18:45:23.196Z,99597.03
2022-11-14T18:47:49.676Z,99600.28
2022-11-14T18:50:16.205Z,99595.50
2022-11-14T18:52:42.692Z,99600.75
2022-11-14T18:55:09.371Z,99600.78
2022-11-14T18:57:35.834Z,99598.94
2022-11-14T19:00:03.487Z,99602.69
2022-11-14T19:02:30.080Z,99601.97
2022-11-14T19:04:57.536Z,99597.16
2022-11-14T19:07:25.337Z,99593.63
2022-11-14T19:09:51.840Z,99600.88
2022-11-14T19:12:18.333Z,99605.66
2022-11-14T19:14:46.277Z,99609.63
2022-11-14T19:17:14.257Z,99607.03
2022-11-14T19:19:40.724Z,99611.38
2022-11-14T19:22:07.246Z,99612.72
2022-11-14T19:24:33.728Z,99602.50
2022-11-14T19:27:00.224Z,99597.91
2022-11-14T19:29:27.003Z,99598.63
2022-11-14T19:31:54.611Z,99594.56
2022-11-14T19:34:21.127Z,99600.88
2022-11-14T19:37:02.983Z,99597.28
2022-11-14T19:39:29.822Z,99591.56
2022-11-14T19:41:56.503Z,99582.66
2022-11-14T19:44:23.031Z,99574.94
2022-11-14T19:46:49.538Z,99575.25
2022-11-14T19:49:16.161Z,99567.81
2022-11-14T19:51:42.892Z,99578.28
2022-11-14T19:54:10.404Z,99577.59
2022-11-14T19:56:37.185Z,99578.38
2022-11-14T19:59:09.649Z,99577.31
2022-11-14T20:01:37.969Z,99583.78
2022-11-14T20:04:04.704Z,99588.84
2022-11-14T20:06:34.360Z,99593.09
2022-11-14T20:09:09.884Z,99589.50
2022-11-14T20:11:36.699Z,99587.41
2022-11-14T20:14:05.665Z,99585.78
2022-11-14T20:16:35.240Z,99587.31
2022-11-14T20:19:01.885Z,99582.81
2022-11-14T20:21:31.095Z,99568.66
2022-11-14T20:23:57.923Z,99567.97
2022-11-14T20:26:25.390Z,99567.69
2022-11-14T20:28:53.887Z,99571.00
2022-11-14T20:31:27.342Z,99560.78
2022-11-14T20:33:54.633Z,99556.75
2022-11-14T20:36:24.121Z,99563.72
2022-11-14T20:38:51.479Z,99566.47
2022-11-14T20:41:18.977Z,99558.38
2022-11-14T20:43:45.525Z,99564.44
2022-11-14T20:46:17.516Z,99562.59
2022-11-14T20:48:44.933Z,99560.31
2022-11-14T20:51:22.861Z,99556.41
2022-11-14T20:53:51.064Z,99566.47
2022-11-14T20:56:18.224Z,99568.88
2022-11-14T20:58:46.465Z,99570.53
2022-11-14T21:01:13.846Z,99559.09
2022-11-14T21:03:41.047Z,99564.31
2022-11-14T21:06:08.463Z,99567.84
2022-11-14T21:08:35.965Z,99571.25
2022-11-14T21:11:05.108Z,99569.53
2022-11-14T21:13:53.411Z,99565.88
2022-11-14T21:16:20.658Z,99569.28
2022-11-14T21:18:48.359Z,99566.78
2022-11-14T21:21:19.483Z,99561.72
2022-11-14T21:23:47.516Z,99556.09
2022-11-14T21:26:16.257Z,99551.16
2022-11-14T21:28:46.311Z,99546.16
2022-11-14T21:31:25.012Z,99546.41
2022-11-14T21:33:54.902Z,99541.28
2022-11-14T21:39:08.858Z,99548.72
2022-11-14T21:41:35.342Z,99541.94
2022-11-14T21:44:04.819Z,99540.75
2022-11-14T21:46:31.437Z,99545.16
2022-11-14T21:48:57.956Z,99548.63
2022-11-14T21:51:28.786Z,99540.31
2022-11-14T21:54:00.177Z,99534.56
2022-11-14T21:56:32.447Z,99527.84
2022-11-14T21:59:16.051Z,99528.78
2022-11-14T22:02:09.481Z,99527.91
2022-11-14T22:04:36.746Z,99536.44
2022-11-14T22:07:07.814Z,99532.75
2022-11-14T22:09:35.378Z,99534.56
2022-11-14T22:12:02.277Z,99540.41
2022-11-14T22:14:29.604Z,99538.88
2022-11-14T22:16:56.463Z,99536.22
2022-11-14T22:19:23.403Z,99534.16
2022-11-14T22:21:50.212Z,99524.19
2022-11-14T22:24:16.688Z,99526.00
2022-11-14T22:26:43.243Z,99527.56
2022-11-14T22:29:09.999Z,99518.56
2022-11-14T22:31:37.800Z,99521.50
2022-11-14T22:34:05.021Z,99528.56
2022-11-14T22:36:31.921Z,99529.03
2022-11-14T22:38:58.576Z,99528.09
2022-11-14T22:41:33.750Z,99536.63
2022-11-14T22:44:01.311Z,99526.38
2022-11-14T22:46:28.305Z,99523.28
2022-11-14T22:48:55.017Z,99517.19
2022-11-14T22:51:23.902Z,99518.41
2022-11-14T22:53:52.807Z,99524.16
2022-11-14T22:56:21.776Z,99522.72
2022-11-14T22:58:48.983Z,99516.72
2022-11-14T23:01:24.207Z,99525.09
2022-11-14T23:03:59.546Z,99527.63
2022-11-14T23:06:26.830Z,99526.69
2022-11-14T23:08:53.967Z,99522.59
2022-11-14T23:11:23.164Z,99514.59
2022-11-14T23:13:52.434Z,99527.75
2022-11-14T23:16:21.467Z,99520.31
2022-11-14T23:18:49.405Z,99524.13
2022-11-14T23:21:25.148Z,99521.00
2022-11-14T23:23:56.368Z,99516.84
2022-11-14T23:26:23.376Z,99523.72
2022-11-14T23:28:50.072Z,99525.84
2022-11-14T23:31:19.625Z,99517.84
2022-11-14T23:33:50.500Z,99512.31
2022-11-14T23:36:17.602Z,99510.00
2022-11-14T23:38:44.167Z,99512.97
2022-11-14T23:41:19.599Z,99509.00
2022-11-14T23:43:46.633Z,99514.44
2022-11-14T23:46:13.919Z,99511.72
2022-11-14T23:48:40.753Z,99514.78
2022-11-14T23:51:07.370Z,99512.28
2022-11-14T23:53:34.114Z,99509.97
2022-11-14T23:56:02.299Z,99518.16
2022-11-14T23:58:30.247Z,99513.94
